createdAt,value
2023-02-14T00:02:21.549Z,94.01
2023-02-14T00:04:50.124Z,94.00
2023-02-14T00:07:18.688Z,94.11
2023-02-14T00:09:47.281Z,93.98
2023-02-14T00:12:15.862Z,94.18
2023-02-14T00:15:02.831Z,94.30
2023-02-14T00:17:31.269Z,94.50
2023-02-14T00:20:00.178Z,94.45
2023-02-14T00:22:28.747Z,94.40
2023-02-14T00:24:58.385Z,94.64
2023-02-14T00:27:29.848Z,94.44
2023-02-14T00:30:03.346Z,94.58
2023-02-14T00:32:32.041Z,94.55
2023-02-14T00:35:00.951Z,94.57
2023-02-14T00:37:29.349Z,94.62
2023-02-14T00:39:57.957Z,94.60
2023-02-14T00:42:27.300Z,94.66
2023-02-14T00:44:55.917Z,94.63
2023-02-14T00:47:24.430Z,94.68
2023-02-14T00:49:52.945Z,94.68
2023-02-14T00:52:21.396Z,94.58
2023-02-14T00:54:49.757Z,94.51
2023-02-14T00:57:18.258Z,94.30
2023-02-14T00:59:46.636Z,94.31
2023-02-14T01:02:15.036Z,94.32
2023-02-14T01:04:43.423Z,94.37
2023-02-14T01:07:11.969Z,94.47
2023-02-14T01:09:40.496Z,94.61
2023-02-14T01:12:08.944Z,94.69
2023-02-14T01:14:38.747Z,94.90
2023-02-14T01:17:07.199Z,94.99
2023-02-14T01:19:36.931Z,95.03
2023-02-14T01:22:05.470Z,95.12
2023-02-14T01:24:34.146Z,95.21
2023-02-14T01:27:02.557Z,95.50
2023-02-14T01:29:30.969Z,95.51
2023-02-14T01:31:59.472Z,95.57
2023-02-14T01:34:27.897Z,95.75
2023-02-14T01:36:56.332Z,95.87
2023-02-14T01:39:24.837Z,95.90
2023-02-14T01:41:56.053Z,96.07
2023-02-14T01:44:33.757Z,96.20
2023-02-14T01:47:05.307Z,96.32
2023-02-14T01:49:38.766Z,96.59
2023-02-14T01:52:20.066Z,96.69
2023-02-14T01:55:10.631Z,96.66
2023-02-14T01:57:50.693Z,96.91
2023-02-14T02:00:39.407Z,96.99
2023-02-14T02:03:09.153Z,97.26
2023-02-14T02:05:40.618Z,97.49
2023-02-14T02:08:09.161Z,97.50
2023-02-14T02:10:38.027Z,97.56
2023-02-14T02:13:08.851Z,97.76
2023-02-14T02:15:51.572Z,98.05
2023-02-14T02:18:52.137Z,98.09
2023-02-14T02:21:32.851Z,98.47
2023-02-14T02:24:12.648Z,98.53
2023-02-14T02:27:03.968Z,99.03
2023-02-14T02:30:13.148Z,99.32
2023-02-14T02:32:47.907Z,99.36
2023-02-14T02:35:29.386Z,99.37
2023-02-14T02:38:07.578Z,99.39
2023-02-14T02:40:49.192Z,99.52
2023-02-14T02:43:49.993Z,99.60
2023-02-14T02:46:44.727Z,99.79
2023-02-14T02:50:04.100Z,99.95
2023-02-14T02:53:04.246Z,99.87
2023-02-14T02:56:14.067Z,100.00
2023-02-14T02:59:01.367Z,99.93
2023-02-14T03:01:34.714Z,99.99
2023-02-14T03:04:26.606Z,99.95
2023-02-14T03:06:56.669Z,100.00
2023-02-14T03:09:28.468Z,100.00
2023-02-14T03:12:35.549Z,100.00
2023-02-14T03:15:23.004Z,100.00
2023-02-14T03:18:07.831Z,100.00
2023-02-14T03:20:48.347Z,100.00
2023-02-14T03:23:55.368Z,100.00
2023-02-14T03:26:39.702Z,100.00
2023-02-14T03:29:36.241Z,100.00
2023-02-14T03:32:23.096Z,100.00
2023-02-14T03:34:51.592Z,100.00
2023-02-14T03:37:43.480Z,100.00
2023-02-14T03:40:39.463Z,100.00
2023-02-14T03:43:12.387Z,100.00
2023-02-14T03:45:51.959Z,100.00
2023-02-14T03:48:24.308Z,100.00
2023-02-14T03:50:54.617Z,100.00
2023-02-14T03:53:27.655Z,100.00
2023-02-14T03:56:09.130Z,100.00
2023-02-14T03:58:48.092Z,100.00
2023-02-14T04:01:33.639Z,100.00
2023-02-14T04:04:04.497Z,100.00
2023-02-14T04:06:33.102Z,100.00
2023-02-14T04:09:01.775Z,100.00
2023-02-14T04:11:35.326Z,100.00
2023-02-14T04:14:04.033Z,100.00
2023-02-14T04:16:52.577Z,100.00
2023-02-14T04:19:23.716Z,100.00
2023-02-14T04:21:53.295Z,100.00
2023-02-14T04:24:21.805Z,100.00
2023-02-14T04:27:10.913Z,100.00
2023-02-14T04:29:43.712Z,100.00
2023-02-14T04:32:15.152Z,100.00
2023-02-14T04:34:44.370Z,100.00
2023-02-14T04:37:14.055Z,100.00
2023-02-14T04:39:42.550Z,100.00
2023-02-14T04:42:11.596Z,100.00
2023-02-14T04:44:40.214Z,100.00
2023-02-14T04:47:08.762Z,100.00
2023-02-14T04:49:37.463Z,100.00
2023-02-14T04:52:06.135Z,100.00
2023-02-14T04:54:34.853Z,100.00
2023-02-14T04:57:03.246Z,100.00
2023-02-14T04:59:31.981Z,100.00
2023-02-14T05:02:00.665Z,100.00
2023-02-14T05:04:29.277Z,100.00
2023-02-14T05:06:57.829Z,100.00
2023-02-14T05:09:26.348Z,100.00
2023-02-14T05:11:54.866Z,100.00
2023-02-14T05:14:23.329Z,100.00
2023-02-14T05:16:51.798Z,100.00
2023-02-14T05:19:20.408Z,100.00
2023-02-14T05:21:51.215Z,100.00
2023-02-14T05:24:19.617Z,100.00
2023-02-14T05:26:48.200Z,100.00
2023-02-14T05:29:16.926Z,100.00
2023-02-14T05:31:46.439Z,100.00
2023-02-14T05:34:15.027Z,100.00
2023-02-14T05:36:43.633Z,100.00
2023-02-14T05:39:14.798Z,100.00
2023-02-14T05:41:43.339Z,100.00
2023-02-14T05:44:11.833Z,100.00
2023-02-14T05:46:40.512Z,100.00
2023-02-14T05:49:08.890Z,100.00
2023-02-14T05:51:37.369Z,100.00
2023-02-14T05:54:06.054Z,100.00
2023-02-14T05:56:34.537Z,100.00
2023-02-14T05:59:03.155Z,100.00
2023-02-14T06:01:31.616Z,100.00
2023-02-14T06:04:00.222Z,100.00
2023-02-14T06:06:28.798Z,100.00
2023-02-14T06:08:57.396Z,100.00
2023-02-14T06:11:25.943Z,100.00
2023-02-14T06:13:54.391Z,100.00
2023-02-14T06:16:23.026Z,100.00
2023-02-14T06:18:51.466Z,100.00
2023-02-14T06:21:19.868Z,100.00
2023-02-14T06:23:48.425Z,100.00
2023-02-14T06:26:16.920Z,100.00
2023-02-14T06:28:45.237Z,100.00
2023-02-14T06:31:17.912Z,100.00
2023-02-14T06:33:46.437Z,100.00
2023-02-14T06:36:15.149Z,100.00
2023-02-14T06:38:43.884Z,100.00
2023-02-14T06:41:12.829Z,100.00
2023-02-14T06:43:42.009Z,100.00
2023-02-14T06:46:10.940Z,100.00
2023-02-14T06:48:39.640Z,100.00
2023-02-14T06:51:08.512Z,100.00
2023-02-14T06:53:37.478Z,100.00
2023-02-14T06:56:06.412Z,100.00
2023-02-14T06:58:35.776Z,100.00
2023-02-14T07:01:05.644Z,100.00
2023-02-14T07:03:34.850Z,100.00
2023-02-14T07:06:03.827Z,100.00
2023-02-14T07:08:32.591Z,100.00
2023-02-14T07:11:01.702Z,100.00
2023-02-14T07:13:31.106Z,100.00
2023-02-14T07:16:00.729Z,100.00
2023-02-14T07:18:30.030Z,100.00
2023-02-14T07:20:59.669Z,100.00
2023-02-14T07:23:31.477Z,100.00
2023-02-14T07:26:01.689Z,100.00
2023-02-14T07:28:34.415Z,100.00
2023-02-14T07:31:08.204Z,100.00
2023-02-14T07:33:44.449Z,100.00
2023-02-14T07:36:52.476Z,100.00
2023-02-14T07:39:37.165Z,100.00
2023-02-14T07:42:39.438Z,100.00
2023-02-14T07:45:22.020Z,100.00
2023-02-14T07:47:55.488Z,100.00
2023-02-14T07:50:24.895Z,100.00
2023-02-14T07:52:54.111Z,100.00
2023-02-14T07:55:26.815Z,100.00
2023-02-14T07:57:57.846Z,100.00
2023-02-14T08:00:27.634Z,100.00
2023-02-14T08:02:56.651Z,100.00
2023-02-14T08:05:25.498Z,100.00
2023-02-14T08:08:09.553Z,100.00
2023-02-14T08:11:00.685Z,100.00
2023-02-14T08:13:30.617Z,100.00
2023-02-14T08:16:06.152Z,100.00
2023-02-14T08:18:41.295Z,100.00
2023-02-14T08:21:11.914Z,100.00
2023-02-14T08:23:40.659Z,100.00
2023-02-14T08:26:09.747Z,100.00
2023-02-14T08:28:39.349Z,100.00
2023-02-14T08:31:09.055Z,100.00
2023-02-14T08:33:38.305Z,100.00
2023-02-14T08:36:07.802Z,100.00
2023-02-14T08:38:36.636Z,100.00
2023-02-14T08:41:08.327Z,100.00
2023-02-14T08:43:38.792Z,100.00
2023-02-14T08:46:07.728Z,100.00
2023-02-14T08:48:39.219Z,100.00
2023-02-14T08:51:09.645Z,100.00
2023-02-14T08:53:40.203Z,100.00
2023-02-14T08:56:12.262Z,100.00
2023-02-14T08:58:42.003Z,100.00
2023-02-14T09:01:13.505Z,100.00
2023-02-14T09:03:42.526Z,100.00
2023-02-14T09:06:15.056Z,100.00
2023-02-14T09:08:45.356Z,100.00
2023-02-14T09:11:18.959Z,100.00
2023-02-14T09:13:48.645Z,100.00
2023-02-14T09:16:19.632Z,100.00
2023-02-14T09:18:49.506Z,100.00
2023-02-14T09:21:21.384Z,100.00
2023-02-14T09:23:50.232Z,100.00
2023-02-14T09:26:22.004Z,100.00
2023-02-14T09:28:51.094Z,100.00
2023-02-14T09:31:22.822Z,100.00
2023-02-14T09:33:52.668Z,100.00
2023-02-14T09:36:21.871Z,100.00
2023-02-14T09:38:50.517Z,100.00
2023-02-14T09:41:32.033Z,100.00
2023-02-14T09:44:39.612Z,100.00
2023-02-14T09:47:21.299Z,100.00
2023-02-14T09:49:56.613Z,100.00
2023-02-14T09:52:48.106Z,100.00
2023-02-14T09:55:31.808Z,100.00
2023-02-14T09:58:18.613Z,100.00
2023-02-14T10:01:23.931Z,100.00
2023-02-14T10:04:32.838Z,100.00
2023-02-14T10:07:55.497Z,100.00
2023-02-14T10:10:39.522Z,100.00
2023-02-14T10:14:56.198Z,100.00
2023-02-14T10:17:35.232Z,100.00
2023-02-14T10:20:46.800Z,100.00
2023-02-14T10:23:43.226Z,100.00
2023-02-14T10:30:33.931Z,100.00
2023-02-14T10:37:18.877Z,100.00
2023-02-14T10:43:32.681Z,100.00
2023-02-14T10:46:09.504Z,100.00
2023-02-14T10:48:47.767Z,100.00
2023-02-14T10:51:33.846Z,100.00
2023-02-14T10:54:22.970Z,100.00
2023-02-14T10:57:03.376Z,100.00
2023-02-14T11:00:34.849Z,100.00
2023-02-14T11:06:47.727Z,100.00
2023-02-14T11:06:59.049Z,100.00
2023-02-14T11:09:44.871Z,100.00
2023-02-14T11:13:13.383Z,100.00
2023-02-14T11:28:31.349Z,100.00
2023-02-14T11:35:21.808Z,100.00
2023-02-14T11:37:54.651Z,100.00
2023-02-14T11:40:40.763Z,99.98
2023-02-14T11:43:56.465Z,100.00
2023-02-14T11:46:41.309Z,99.89
2023-02-14T11:50:29.901Z,99.86
2023-02-14T11:53:29.400Z,99.92
2023-02-14T11:56:21.355Z,99.69
2023-02-14T12:03:49.199Z,99.00
2023-02-14T12:10:42.312Z,99.09
2023-02-14T12:38:40.988Z,96.81
2023-02-14T12:41:33.750Z,96.71
2023-02-14T12:44:27.980Z,96.45
2023-02-14T12:47:32.288Z,96.68
2023-02-14T12:50:36.244Z,96.56
2023-02-14T12:53:22.181Z,96.45
2023-02-14T12:56:03.812Z,96.36
2023-02-14T12:58:36.187Z,96.76
2023-02-14T13:01:29.080Z,97.14
2023-02-14T13:04:44.413Z,97.18
2023-02-14T13:07:18.662Z,96.88
2023-02-14T13:10:13.029Z,96.52
2023-02-14T13:12:40.579Z,96.92
2023-02-14T13:15:41.987Z,97.30
2023-02-14T13:18:56.492Z,97.26
2023-02-14T13:27:27.971Z,97.21
2023-02-14T13:30:03.914Z,97.33
2023-02-14T13:32:39.711Z,97.37
2023-02-14T13:35:17.885Z,97.26
2023-02-14T13:44:03.208Z,97.63
2023-02-14T13:46:35.711Z,97.57
2023-02-14T13:49:37.402Z,97.53
2023-02-14T13:52:06.966Z,97.66
2023-02-14T13:54:48.159Z,97.54
2023-02-14T13:57:39.640Z,97.21
2023-02-14T14:00:17.855Z,97.36
2023-02-14T14:02:57.257Z,97.62
2023-02-14T14:05:33.104Z,97.72
2023-02-14T14:08:32.470Z,97.44
2023-02-14T14:11:10.683Z,97.22
2023-02-14T14:13:42.878Z,97.24
2023-02-14T14:16:21.884Z,97.40
2023-02-14T14:18:53.402Z,97.46
2023-02-14T14:21:30.974Z,97.40
2023-02-14T14:24:20.183Z,97.82
2023-02-14T14:27:12.926Z,97.85
2023-02-14T14:30:13.996Z,98.11
2023-02-14T14:32:42.593Z,98.33
2023-02-14T14:35:21.935Z,98.48
2023-02-14T14:37:54.809Z,98.53
2023-02-14T14:40:39.004Z,98.52
2023-02-14T14:43:14.663Z,98.73
2023-02-14T14:45:47.030Z,98.84
2023-02-14T14:48:39.435Z,99.03
2023-02-14T14:51:20.437Z,99.16
2023-02-14T14:53:53.112Z,99.12
2023-02-14T14:56:25.487Z,99.27
2023-02-14T14:58:55.001Z,99.36
2023-02-14T15:01:40.782Z,99.43
2023-02-14T15:04:25.863Z,99.48
2023-02-14T15:06:57.822Z,99.37
2023-02-14T15:09:29.597Z,99.43
2023-02-14T15:12:20.206Z,99.47
2023-02-14T15:14:54.975Z,99.73
2023-02-14T15:17:31.141Z,99.75
2023-02-14T15:20:05.204Z,99.84
2023-02-14T15:22:42.657Z,99.92
2023-02-14T15:25:17.468Z,99.80
2023-02-14T15:27:46.486Z,99.75
2023-02-14T15:30:26.974Z,99.78
2023-02-14T15:32:57.045Z,99.82
2023-02-14T15:35:29.556Z,99.90
2023-02-14T15:38:01.940Z,99.95
2023-02-14T15:40:33.672Z,99.87
2023-02-14T15:43:15.909Z,99.95
2023-02-14T15:45:48.170Z,99.97
2023-02-14T15:48:19.978Z,99.97
2023-02-14T15:50:53.047Z,100.00
2023-02-14T15:53:43.216Z,100.00
2023-02-14T15:56:14.763Z,100.00
2023-02-14T15:58:45.425Z,100.00
2023-02-14T16:01:14.305Z,100.00
2023-02-14T16:03:51.854Z,100.00
2023-02-14T16:07:03.159Z,100.00
2023-02-14T16:09:36.107Z,100.00
2023-02-14T16:12:30.835Z,100.00
2023-02-14T16:15:27.706Z,100.00
2023-02-14T16:18:08.285Z,100.00
2023-02-14T16:20:52.527Z,100.00
2023-02-14T16:23:24.496Z,100.00
2023-02-14T16:25:54.405Z,100.00
2023-02-14T16:28:23.362Z,100.00
2023-02-14T16:30:57.522Z,100.00
2023-02-14T16:33:31.178Z,100.00
2023-02-14T16:36:09.573Z,100.00
2023-02-14T16:38:43.338Z,100.00
2023-02-14T16:41:18.147Z,100.00
2023-02-14T16:43:47.795Z,100.00
2023-02-14T16:46:19.472Z,100.00
2023-02-14T16:48:52.877Z,100.00
2023-02-14T16:51:23.964Z,100.00
2023-02-14T16:53:54.256Z,100.00
2023-02-14T16:56:33.903Z,100.00
2023-02-14T16:59:02.464Z,100.00
2023-02-14T17:01:32.384Z,100.00
2023-02-14T17:04:01.314Z,100.00
2023-02-14T17:06:32.658Z,100.00
2023-02-14T17:09:07.950Z,100.00
2023-02-14T17:11:40.615Z,100.00
2023-02-14T17:14:14.353Z,100.00
2023-02-14T17:16:43.344Z,100.00
2023-02-14T17:19:12.221Z,100.00
2023-02-14T17:21:41.806Z,100.00
2023-02-14T17:24:11.547Z,100.00
2023-02-14T17:27:00.711Z,100.00
2023-02-14T17:29:34.717Z,100.00
2023-02-14T17:32:04.611Z,100.00
2023-02-14T17:34:35.466Z,100.00
2023-02-14T17:37:06.358Z,100.00
2023-02-14T17:39:38.900Z,100.00
2023-02-14T17:42:11.972Z,100.00
2023-02-14T17:44:41.758Z,100.00
2023-02-14T17:47:11.692Z,100.00
2023-02-14T17:50:05.891Z,100.00
2023-02-14T17:52:51.627Z,100.00
2023-02-14T17:55:28.298Z,100.00
2023-02-14T17:57:56.958Z,100.00
2023-02-14T18:00:25.950Z,100.00
2023-02-14T18:02:55.247Z,100.00
2023-02-14T18:05:25.265Z,100.00
2023-02-14T18:07:55.949Z,100.00
2023-02-14T18:10:24.546Z,100.00
2023-02-14T18:12:53.372Z,100.00
2023-02-14T18:15:23.007Z,100.00
2023-02-14T18:17:52.719Z,100.00
2023-02-14T18:20:21.861Z,100.00
2023-02-14T18:22:50.531Z,100.00
2023-02-14T18:25:19.818Z,100.00
2023-02-14T18:27:49.117Z,100.00
2023-02-14T18:30:18.402Z,100.00
2023-02-14T18:32:52.406Z,100.00
2023-02-14T18:35:24.953Z,100.00
2023-02-14T18:37:54.052Z,100.00
2023-02-14T18:40:25.651Z,100.00
2023-02-14T18:42:54.895Z,100.00
2023-02-14T18:45:23.460Z,100.00
2023-02-14T18:47:52.253Z,100.00
